sensor_id;sensor_type;location;lat;lon;timestamp;P1;durP1;ratioP1;P2;durP2;ratioP2
44696;SDS011;57264;47.480;19.354;2023-03-21T00:01:06;22.25;;;14.10;;
44696;SDS011;57264;47.480;19.354;2023-03-21T00:03:32;20.00;;;14.40;;
44696;SDS011;57264;47.480;19.354;2023-03-21T00:05:58;18.55;;;14.27;;
44696;SDS011;57264;47.480;19.354;2023-03-21T00:08:29;16.08;;;12.40;;
44696;SDS011;57264;47.480;19.354;2023-03-21T00:10:58;18.17;;;12.20;;
44696;SDS011;57264;47.480;19.354;2023-03-21T00:13:26;17.77;;;12.90;;
44696;SDS011;57264;47.480;19.354;2023-03-21T00:15:56;15.85;;;12.77;;
44696;SDS011;57264;47.480;19.354;2023-03-21T00:18:27;16.70;;;12.73;;
44696;SDS011;57264;47.480;19.354;2023-03-21T00:20:59;16.93;;;12.13;;
44696;SDS011;57264;47.480;19.354;2023-03-21T00:23:30;18.48;;;13.20;;
44696;SDS011;57264;47.480;19.354;2023-03-21T00:25:56;18.80;;;13.13;;
44696;SDS011;57264;47.480;19.354;2023-03-21T00:28:23;18.98;;;13.32;;
44696;SDS011;57264;47.480;19.354;2023-03-21T00:30:49;15.35;;;12.13;;
44696;SDS011;57264;47.480;19.354;2023-03-21T00:33:15;15.77;;;12.60;;
44696;SDS011;57264;47.480;19.354;2023-03-21T00:35:44;15.30;;;12.38;;
44696;SDS011;57264;47.480;19.354;2023-03-21T00:38:13;17.92;;;13.52;;
44696;SDS011;57264;47.480;19.354;2023-03-21T00:40:39;16.13;;;12.20;;
44696;SDS011;57264;47.480;19.354;2023-03-21T00:43:05;15.63;;;12.23;;
44696;SDS011;57264;47.480;19.354;2023-03-21T00:45:31;14.67;;;12.10;;
44696;SDS011;57264;47.480;19.354;2023-03-21T00:47:57;16.67;;;11.73;;
44696;SDS011;57264;47.480;19.354;2023-03-21T00:50:23;14.30;;;11.98;;
44696;SDS011;57264;47.480;19.354;2023-03-21T00:52:48;20.33;;;11.73;;
44696;SDS011;57264;47.480;19.354;2023-03-21T00:55:14;15.17;;;11.87;;
44696;SDS011;57264;47.480;19.354;2023-03-21T00:57:42;14.07;;;11.57;;
44696;SDS011;57264;47.480;19.354;2023-03-21T01:00:10;15.90;;;11.98;;
44696;SDS011;57264;47.480;19.354;2023-03-21T01:02:38;15.65;;;11.27;;
44696;SDS011;57264;47.480;19.354;2023-03-21T01:05:27;16.45;;;11.95;;
44696;SDS011;57264;47.480;19.354;2023-03-21T01:10:40;16.60;;;12.27;;
44696;SDS011;57264;47.480;19.354;2023-03-21T01:13:07;14.25;;;12.02;;
44696;SDS011;57264;47.480;19.354;2023-03-21T01:15:34;30.08;;;12.75;;
44696;SDS011;57264;47.480;19.354;2023-03-21T01:18:01;15.57;;;11.93;;
44696;SDS011;57264;47.480;19.354;2023-03-21T01:20:26;15.77;;;12.37;;
44696;SDS011;57264;47.480;19.354;2023-03-21T01:22:52;14.17;;;12.17;;
44696;SDS011;57264;47.480;19.354;2023-03-21T01:25:18;15.17;;;12.40;;
44696;SDS011;57264;47.480;19.354;2023-03-21T01:27:43;14.77;;;12.53;;
44696;SDS011;57264;47.480;19.354;2023-03-21T01:30:09;15.10;;;12.80;;
44696;SDS011;57264;47.480;19.354;2023-03-21T01:32:35;15.15;;;11.85;;
44696;SDS011;57264;47.480;19.354;2023-03-21T01:35:01;15.47;;;12.50;;
44696;SDS011;57264;47.480;19.354;2023-03-21T01:37:26;15.90;;;12.93;;
44696;SDS011;57264;47.480;19.354;2023-03-21T01:39:52;16.00;;;12.30;;
44696;SDS011;57264;47.480;19.354;2023-03-21T01:42:17;16.67;;;13.33;;
44696;SDS011;57264;47.480;19.354;2023-03-21T01:45:05;19.50;;;13.60;;
44696;SDS011;57264;47.480;19.354;2023-03-21T01:47:31;16.35;;;13.05;;
44696;SDS011;57264;47.480;19.354;2023-03-21T01:49:58;16.60;;;12.60;;
44696;SDS011;57264;47.480;19.354;2023-03-21T01:52:28;15.30;;;12.35;;
44696;SDS011;57264;47.480;19.354;2023-03-21T01:54:57;17.67;;;12.77;;
44696;SDS011;57264;47.480;19.354;2023-03-21T01:57:26;15.25;;;13.63;;
44696;SDS011;57264;47.480;19.354;2023-03-21T01:59:57;15.52;;;12.82;;
44696;SDS011;57264;47.480;19.354;2023-03-21T02:02:30;17.63;;;13.13;;
44696;SDS011;57264;47.480;19.354;2023-03-21T02:04:56;17.63;;;13.10;;
44696;SDS011;57264;47.480;19.354;2023-03-21T02:07:28;15.93;;;12.05;;
44696;SDS011;57264;47.480;19.354;2023-03-21T02:09:55;15.05;;;12.90;;
44696;SDS011;57264;47.480;19.354;2023-03-21T02:12:22;13.63;;;12.23;;
44696;SDS011;57264;47.480;19.354;2023-03-21T02:14:49;16.15;;;13.00;;
44696;SDS011;57264;47.480;19.354;2023-03-21T02:28:35;18.73;;;14.23;;
44696;SDS011;57264;47.480;19.354;2023-03-21T02:45:24;18.45;;;15.25;;
44696;SDS011;57264;47.480;19.354;2023-03-21T02:47:56;22.48;;;14.70;;
44696;SDS011;57264;47.480;19.354;2023-03-21T02:51:02;17.98;;;14.65;;
44696;SDS011;57264;47.480;19.354;2023-03-21T02:53:24;18.48;;;15.57;;
44696;SDS011;57264;47.480;19.354;2023-03-21T02:55:55;18.38;;;15.88;;
44696;SDS011;57264;47.480;19.354;2023-03-21T02:58:23;22.77;;;16.27;;
44696;SDS011;57264;47.480;19.354;2023-03-21T03:00:51;18.67;;;15.25;;
44696;SDS011;57264;47.480;19.354;2023-03-21T03:03:19;18.38;;;15.57;;
44696;SDS011;57264;47.480;19.354;2023-03-21T03:05:52;19.57;;;15.27;;
44696;SDS011;57264;47.480;19.354;2023-03-21T03:08:26;16.73;;;14.90;;
44696;SDS011;57264;47.480;19.354;2023-03-21T03:10:58;18.98;;;15.52;;
44696;SDS011;57264;47.480;19.354;2023-03-21T03:25:24;18.00;;;15.65;;
44696;SDS011;57264;47.480;19.354;2023-03-21T03:27:55;19.20;;;15.30;;
44696;SDS011;57264;47.480;19.354;2023-03-21T03:30:23;19.83;;;15.63;;
44696;SDS011;57264;47.480;19.354;2023-03-21T03:32:52;20.58;;;16.20;;
44696;SDS011;57264;47.480;19.354;2023-03-21T03:35:23;20.92;;;15.85;;
44696;SDS011;57264;47.480;19.354;2023-03-21T03:37:52;21.60;;;15.93;;
44696;SDS011;57264;47.480;19.354;2023-03-21T03:43:14;18.42;;;15.82;;
44696;SDS011;57264;47.480;19.354;2023-03-21T03:45:55;20.73;;;15.68;;
44696;SDS011;57264;47.480;19.354;2023-03-21T03:48:33;17.42;;;15.50;;
44696;SDS011;57264;47.480;19.354;2023-03-21T03:51:11;21.55;;;17.00;;
44696;SDS011;57264;47.480;19.354;2023-03-21T03:53:48;20.70;;;16.83;;
44696;SDS011;57264;47.480;19.354;2023-03-21T03:56:26;21.75;;;16.55;;
44696;SDS011;57264;47.480;19.354;2023-03-21T03:58:53;20.35;;;16.60;;
44696;SDS011;57264;47.480;19.354;2023-03-21T04:01:20;20.75;;;16.10;;
44696;SDS011;57264;47.480;19.354;2023-03-21T04:03:46;20.47;;;15.03;;
44696;SDS011;57264;47.480;19.354;2023-03-21T04:06:13;21.90;;;15.95;;
44696;SDS011;57264;47.480;19.354;2023-03-21T04:08:40;19.02;;;14.95;;
44696;SDS011;57264;47.480;19.354;2023-03-21T04:11:07;17.83;;;14.70;;
44696;SDS011;57264;47.480;19.354;2023-03-21T04:13:33;17.58;;;14.15;;
44696;SDS011;57264;47.480;19.354;2023-03-21T04:15:58;17.90;;;14.07;;
44696;SDS011;57264;47.480;19.354;2023-03-21T04:18:24;16.77;;;14.20;;
44696;SDS011;57264;47.480;19.354;2023-03-21T04:20:50;16.77;;;13.70;;
44696;SDS011;57264;47.480;19.354;2023-03-21T04:23:17;16.42;;;13.57;;
44696;SDS011;57264;47.480;19.354;2023-03-21T04:25:43;17.38;;;13.32;;
44696;SDS011;57264;47.480;19.354;2023-03-21T04:28:09;18.87;;;13.20;;
44696;SDS011;57264;47.480;19.354;2023-03-21T04:30:35;14.40;;;12.75;;
44696;SDS011;57264;47.480;19.354;2023-03-21T04:33:01;15.97;;;13.20;;
44696;SDS011;57264;47.480;19.354;2023-03-21T04:35:26;17.83;;;13.67;;
44696;SDS011;57264;47.480;19.354;2023-03-21T04:37:53;15.73;;;13.18;;
44696;SDS011;57264;47.480;19.354;2023-03-21T04:40:19;15.20;;;13.10;;
44696;SDS011;57264;47.480;19.354;2023-03-21T04:42:45;14.93;;;12.73;;
44696;SDS011;57264;47.480;19.354;2023-03-21T04:45:12;15.68;;;12.70;;
44696;SDS011;57264;47.480;19.354;2023-03-21T04:47:39;14.60;;;12.93;;
44696;SDS011;57264;47.480;19.354;2023-03-21T04:50:06;14.75;;;12.25;;
44696;SDS011;57264;47.480;19.354;2023-03-21T04:52:32;12.75;;;11.07;;
44696;SDS011;57264;47.480;19.354;2023-03-21T04:54:57;13.60;;;10.93;;
44696;SDS011;57264;47.480;19.354;2023-03-21T04:57:23;11.33;;;10.03;;
44696;SDS011;57264;47.480;19.354;2023-03-21T04:59:48;12.87;;;9.67;;
44696;SDS011;57264;47.480;19.354;2023-03-21T05:02:14;13.67;;;9.83;;
44696;SDS011;57264;47.480;19.354;2023-03-21T05:04:40;11.73;;;10.50;;
44696;SDS011;57264;47.480;19.354;2023-03-21T05:07:05;12.60;;;10.30;;
44696;SDS011;57264;47.480;19.354;2023-03-21T05:09:31;11.80;;;10.53;;
44696;SDS011;57264;47.480;19.354;2023-03-21T05:11:57;10.63;;;9.57;;
44696;SDS011;57264;47.480;19.354;2023-03-21T05:14:23;11.57;;;10.03;;
44696;SDS011;57264;47.480;19.354;2023-03-21T05:16:50;11.13;;;9.35;;
44696;SDS011;57264;47.480;19.354;2023-03-21T05:19:24;13.88;;;10.32;;
44696;SDS011;57264;47.480;19.354;2023-03-21T05:22:09;13.38;;;10.30;;
44696;SDS011;57264;47.480;19.354;2023-03-21T05:24:36;10.98;;;9.13;;
44696;SDS011;57264;47.480;19.354;2023-03-21T05:27:05;12.63;;;9.10;;
44696;SDS011;57264;47.480;19.354;2023-03-21T05:29:31;11.53;;;9.97;;
44696;SDS011;57264;47.480;19.354;2023-03-21T05:31:58;12.05;;;9.93;;
44696;SDS011;57264;47.480;19.354;2023-03-21T05:34:24;10.65;;;8.82;;
44696;SDS011;57264;47.480;19.354;2023-03-21T05:36:51;13.23;;;9.73;;
44696;SDS011;57264;47.480;19.354;2023-03-21T05:39:17;15.45;;;10.40;;
44696;SDS011;57264;47.480;19.354;2023-03-21T05:41:43;13.03;;;9.60;;
44696;SDS011;57264;47.480;19.354;2023-03-21T05:44:08;12.13;;;10.90;;
44696;SDS011;57264;47.480;19.354;2023-03-21T05:46:34;13.27;;;9.50;;
44696;SDS011;57264;47.480;19.354;2023-03-21T05:49:00;10.77;;;8.87;;
44696;SDS011;57264;47.480;19.354;2023-03-21T05:51:25;14.53;;;8.73;;
44696;SDS011;57264;47.480;19.354;2023-03-21T05:53:52;14.52;;;8.30;;
44696;SDS011;57264;47.480;19.354;2023-03-21T05:56:17;11.27;;;7.50;;
44696;SDS011;57264;47.480;19.354;2023-03-21T05:58:43;8.47;;;7.37;;
44696;SDS011;57264;47.480;19.354;2023-03-21T06:01:09;24.60;;;13.00;;
44696;SDS011;57264;47.480;19.354;2023-03-21T06:03:34;27.90;;;17.87;;
44696;SDS011;57264;47.480;19.354;2023-03-21T06:06:00;31.07;;;16.80;;
44696;SDS011;57264;47.480;19.354;2023-03-21T06:08:27;31.00;;;15.65;;
44696;SDS011;57264;47.480;19.354;2023-03-21T06:10:53;25.13;;;14.47;;
44696;SDS011;57264;47.480;19.354;2023-03-21T06:13:19;21.50;;;11.88;;
44696;SDS011;57264;47.480;19.354;2023-03-21T06:15:45;54.63;;;29.47;;
44696;SDS011;57264;47.480;19.354;2023-03-21T06:18:11;59.57;;;32.37;;
44696;SDS011;57264;47.480;19.354;2023-03-21T06:20:36;13.83;;;10.53;;
44696;SDS011;57264;47.480;19.354;2023-03-21T06:23:02;14.93;;;10.13;;
44696;SDS011;57264;47.480;19.354;2023-03-21T06:25:28;20.27;;;9.37;;
44696;SDS011;57264;47.480;19.354;2023-03-21T06:27:53;26.87;;;14.37;;
44696;SDS011;57264;47.480;19.354;2023-03-21T06:30:19;32.87;;;17.93;;
44696;SDS011;57264;47.480;19.354;2023-03-21T06:32:45;21.03;;;10.67;;
44696;SDS011;57264;47.480;19.354;2023-03-21T06:35:10;13.80;;;9.50;;
44696;SDS011;57264;47.480;19.354;2023-03-21T06:37:36;24.37;;;15.60;;
44696;SDS011;57264;47.480;19.354;2023-03-21T06:40:02;41.20;;;21.47;;
44696;SDS011;57264;47.480;19.354;2023-03-21T06:42:29;32.03;;;12.03;;
44696;SDS011;57264;47.480;19.354;2023-03-21T06:44:56;13.63;;;8.00;;
44696;SDS011;57264;47.480;19.354;2023-03-21T06:47:22;11.07;;;8.10;;
44696;SDS011;57264;47.480;19.354;2023-03-21T06:49:48;18.27;;;8.60;;
44696;SDS011;57264;47.480;19.354;2023-03-21T06:52:14;23.87;;;8.70;;
44696;SDS011;57264;47.480;19.354;2023-03-21T06:54:39;20.53;;;9.37;;
44696;SDS011;57264;47.480;19.354;2023-03-21T06:57:05;14.47;;;7.63;;
44696;SDS011;57264;47.480;19.354;2023-03-21T06:59:30;12.97;;;8.60;;
44696;SDS011;57264;47.480;19.354;2023-03-21T07:01:56;13.60;;;9.40;;
44696;SDS011;57264;47.480;19.354;2023-03-21T07:04:21;10.73;;;7.20;;
44696;SDS011;57264;47.480;19.354;2023-03-21T07:06:47;9.70;;;6.93;;
44696;SDS011;57264;47.480;19.354;2023-03-21T07:09:13;8.80;;;7.20;;
44696;SDS011;57264;47.480;19.354;2023-03-21T07:11:41;9.53;;;6.77;;
44696;SDS011;57264;47.480;19.354;2023-03-21T07:14:07;8.57;;;6.93;;
44696;SDS011;57264;47.480;19.354;2023-03-21T07:16:32;8.63;;;6.43;;
44696;SDS011;57264;47.480;19.354;2023-03-21T07:18:59;7.40;;;6.60;;
44696;SDS011;57264;47.480;19.354;2023-03-21T07:21:25;9.70;;;6.60;;
44696;SDS011;57264;47.480;19.354;2023-03-21T07:23:50;8.17;;;6.37;;
44696;SDS011;57264;47.480;19.354;2023-03-21T07:26:16;7.53;;;5.60;;
44696;SDS011;57264;47.480;19.354;2023-03-21T07:28:42;6.83;;;5.90;;
44696;SDS011;57264;47.480;19.354;2023-03-21T07:31:11;10.83;;;6.13;;
44696;SDS011;57264;47.480;19.354;2023-03-21T07:33:39;8.40;;;5.90;;
44696;SDS011;57264;47.480;19.354;2023-03-21T07:36:08;19.23;;;7.57;;
44696;SDS011;57264;47.480;19.354;2023-03-21T07:38:39;8.35;;;5.43;;
44696;SDS011;57264;47.480;19.354;2023-03-21T07:41:07;6.67;;;5.43;;
44696;SDS011;57264;47.480;19.354;2023-03-21T07:43:33;6.77;;;5.83;;
44696;SDS011;57264;47.480;19.354;2023-03-21T07:45:58;9.37;;;5.47;;
44696;SDS011;57264;47.480;19.354;2023-03-21T07:48:24;9.30;;;6.00;;
44696;SDS011;57264;47.480;19.354;2023-03-21T07:50:50;8.43;;;6.43;;
44696;SDS011;57264;47.480;19.354;2023-03-21T07:53:16;8.47;;;6.00;;
44696;SDS011;57264;47.480;19.354;2023-03-21T07:55:43;8.70;;;5.80;;
44696;SDS011;57264;47.480;19.354;2023-03-21T07:58:09;14.03;;;6.90;;
44696;SDS011;57264;47.480;19.354;2023-03-21T08:00:34;7.30;;;5.97;;
44696;SDS011;57264;47.480;19.354;2023-03-21T08:03:00;14.00;;;7.47;;
44696;SDS011;57264;47.480;19.354;2023-03-21T08:05:27;7.43;;;6.13;;
44696;SDS011;57264;47.480;19.354;2023-03-21T08:07:54;7.10;;;5.47;;
44696;SDS011;57264;47.480;19.354;2023-03-21T08:10:20;8.57;;;6.30;;
44696;SDS011;57264;47.480;19.354;2023-03-21T08:12:46;11.70;;;7.20;;
44696;SDS011;57264;47.480;19.354;2023-03-21T08:15:12;10.70;;;6.00;;
44696;SDS011;57264;47.480;19.354;2023-03-21T08:17:39;8.83;;;5.63;;
44696;SDS011;57264;47.480;19.354;2023-03-21T08:20:05;8.27;;;6.07;;
44696;SDS011;57264;47.480;19.354;2023-03-21T08:22:33;10.17;;;6.30;;
44696;SDS011;57264;47.480;19.354;2023-03-21T08:25:00;9.27;;;5.03;;
44696;SDS011;57264;47.480;19.354;2023-03-21T08:27:28;7.87;;;5.40;;
44696;SDS011;57264;47.480;19.354;2023-03-21T08:29:53;7.40;;;5.03;;
44696;SDS011;57264;47.480;19.354;2023-03-21T08:32:19;6.87;;;4.37;;
44696;SDS011;57264;47.480;19.354;2023-03-21T08:34:49;6.97;;;4.90;;
44696;SDS011;57264;47.480;19.354;2023-03-21T08:37:16;7.33;;;4.50;;
44696;SDS011;57264;47.480;19.354;2023-03-21T08:39:41;9.60;;;6.30;;
44696;SDS011;57264;47.480;19.354;2023-03-21T08:42:07;7.70;;;5.20;;
44696;SDS011;57264;47.480;19.354;2023-03-21T08:44:33;9.27;;;5.80;;
44696;SDS011;57264;47.480;19.354;2023-03-21T08:46:58;12.50;;;6.20;;
44696;SDS011;57264;47.480;19.354;2023-03-21T08:49:24;8.67;;;6.00;;
44696;SDS011;57264;47.480;19.354;2023-03-21T08:51:55;7.55;;;5.53;;
44696;SDS011;57264;47.480;19.354;2023-03-21T08:54:21;9.50;;;5.30;;
44696;SDS011;57264;47.480;19.354;2023-03-21T08:56:47;7.03;;;5.07;;
44696;SDS011;57264;47.480;19.354;2023-03-21T08:59:13;5.63;;;4.77;;
44696;SDS011;57264;47.480;19.354;2023-03-21T09:01:39;6.10;;;4.40;;
44696;SDS011;57264;47.480;19.354;2023-03-21T09:04:05;9.73;;;5.33;;
44696;SDS011;57264;47.480;19.354;2023-03-21T09:06:34;4.73;;;3.97;;
44696;SDS011;57264;47.480;19.354;2023-03-21T09:09:05;6.00;;;4.00;;
44696;SDS011;57264;47.480;19.354;2023-03-21T09:11:33;4.57;;;3.97;;
44696;SDS011;57264;47.480;19.354;2023-03-21T09:13:59;7.70;;;5.87;;
44696;SDS011;57264;47.480;19.354;2023-03-21T09:16:26;9.83;;;4.07;;
44696;SDS011;57264;47.480;19.354;2023-03-21T09:18:52;7.50;;;4.40;;
44696;SDS011;57264;47.480;19.354;2023-03-21T09:21:21;13.83;;;4.30;;
44696;SDS011;57264;47.480;19.354;2023-03-21T09:23:48;12.07;;;4.57;;
44696;SDS011;57264;47.480;19.354;2023-03-21T09:26:21;4.40;;;3.80;;
44696;SDS011;57264;47.480;19.354;2023-03-21T09:28:47;8.67;;;3.60;;
44696;SDS011;57264;47.480;19.354;2023-03-21T09:31:14;3.97;;;2.43;;
44696;SDS011;57264;47.480;19.354;2023-03-21T09:33:45;2.70;;;2.45;;
44696;SDS011;57264;47.480;19.354;2023-03-21T09:36:11;4.07;;;2.30;;
44696;SDS011;57264;47.480;19.354;2023-03-21T09:38:41;3.33;;;2.20;;
44696;SDS011;57264;47.480;19.354;2023-03-21T09:46:35;4.87;;;1.93;;
44696;SDS011;57264;47.480;19.354;2023-03-21T09:49:21;2.40;;;1.70;;
44696;SDS011;57264;47.480;19.354;2023-03-21T09:54:29;2.10;;;1.27;;
44696;SDS011;57264;47.480;19.354;2023-03-21T09:57:10;2.23;;;1.57;;
44696;SDS011;57264;47.480;19.354;2023-03-21T09:59:44;2.90;;;1.63;;
44696;SDS011;57264;47.480;19.354;2023-03-21T10:05:19;2.60;;;1.47;;
44696;SDS011;57264;47.480;19.354;2023-03-21T10:07:51;1.23;;;1.00;;
44696;SDS011;57264;47.480;19.354;2023-03-21T10:10:22;3.63;;;1.20;;
44696;SDS011;57264;47.480;19.354;2023-03-21T10:12:52;3.10;;;1.50;;
44696;SDS011;57264;47.480;19.354;2023-03-21T10:15:20;2.27;;;1.63;;
44696;SDS011;57264;47.480;19.354;2023-03-21T10:17:53;2.60;;;1.50;;
44696;SDS011;57264;47.480;19.354;2023-03-21T10:20:23;2.20;;;1.67;;
44696;SDS011;57264;47.480;19.354;2023-03-21T10:22:52;2.03;;;1.37;;
44696;SDS011;57264;47.480;19.354;2023-03-21T10:25:21;2.23;;;0.90;;
44696;SDS011;57264;47.480;19.354;2023-03-21T10:27:52;2.60;;;1.30;;
44696;SDS011;57264;47.480;19.354;2023-03-21T10:30:29;1.23;;;1.00;;
44696;SDS011;57264;47.480;19.354;2023-03-21T10:33:03;3.47;;;1.13;;
44696;SDS011;57264;47.480;19.354;2023-03-21T10:35:33;4.80;;;1.20;;
44696;SDS011;57264;47.480;19.354;2023-03-21T10:38:01;6.17;;;2.30;;
44696;SDS011;57264;47.480;19.354;2023-03-21T10:40:28;4.87;;;2.27;;
44696;SDS011;57264;47.480;19.354;2023-03-21T10:43:14;2.20;;;1.90;;
44696;SDS011;57264;47.480;19.354;2023-03-21T10:45:48;3.53;;;1.40;;
44696;SDS011;57264;47.480;19.354;2023-03-21T10:48:14;8.77;;;2.53;;
44696;SDS011;57264;47.480;19.354;2023-03-21T10:50:40;5.20;;;1.70;;
44696;SDS011;57264;47.480;19.354;2023-03-21T10:55:56;5.27;;;1.87;;
44696;SDS011;57264;47.480;19.354;2023-03-21T10:58:26;1.70;;;1.60;;
44696;SDS011;57264;47.480;19.354;2023-03-21T11:00:55;1.80;;;1.30;;
44696;SDS011;57264;47.480;19.354;2023-03-21T11:08:58;3.30;;;1.90;;
44696;SDS011;57264;47.480;19.354;2023-03-21T11:11:33;2.70;;;1.30;;
44696;SDS011;57264;47.480;19.354;2023-03-21T11:14:04;9.60;;;2.67;;
44696;SDS011;57264;47.480;19.354;2023-03-21T11:19:45;6.67;;;1.93;;
44696;SDS011;57264;47.480;19.354;2023-03-21T11:21:56;4.67;;;1.53;;
44696;SDS011;57264;47.480;19.354;2023-03-21T11:24:25;2.60;;;1.67;;
44696;SDS011;57264;47.480;19.354;2023-03-21T11:26:54;4.97;;;1.80;;
44696;SDS011;57264;47.480;19.354;2023-03-21T11:29:43;3.40;;;1.20;;
44696;SDS011;57264;47.480;19.354;2023-03-21T11:32:12;1.93;;;1.10;;
44696;SDS011;57264;47.480;19.354;2023-03-21T11:35:00;1.40;;;1.13;;
44696;SDS011;57264;47.480;19.354;2023-03-21T11:40:17;9.43;;;1.45;;
44696;SDS011;57264;47.480;19.354;2023-03-21T11:42:47;2.37;;;1.80;;
44696;SDS011;57264;47.480;19.354;2023-03-21T11:47:49;1.63;;;1.40;;
44696;SDS011;57264;47.480;19.354;2023-03-21T11:50:18;1.37;;;1.00;;
44696;SDS011;57264;47.480;19.354;2023-03-21T12:01:52;3.57;;;1.37;;
44696;SDS011;57264;47.480;19.354;2023-03-21T12:07:44;2.17;;;1.33;;
44696;SDS011;57264;47.480;19.354;2023-03-21T12:21:24;2.93;;;1.00;;
44696;SDS011;57264;47.480;19.354;2023-03-21T12:24:02;4.53;;;1.10;;
44696;SDS011;57264;47.480;19.354;2023-03-21T12:29:32;4.70;;;1.10;;
44696;SDS011;57264;47.480;19.354;2023-03-21T12:32:15;4.72;;;1.40;;
44696;SDS011;57264;47.480;19.354;2023-03-21T12:39:57;2.63;;;1.60;;
44696;SDS011;57264;47.480;19.354;2023-03-21T12:45:37;7.73;;;4.20;;
44696;SDS011;57264;47.480;19.354;2023-03-21T12:48:27;2.57;;;1.60;;
44696;SDS011;57264;47.480;19.354;2023-03-21T12:51:03;3.93;;;2.00;;
44696;SDS011;57264;47.480;19.354;2023-03-21T12:56:30;4.50;;;2.23;;
44696;SDS011;57264;47.480;19.354;2023-03-21T12:59:15;3.53;;;2.50;;
44696;SDS011;57264;47.480;19.354;2023-03-21T13:01:46;3.93;;;2.67;;
44696;SDS011;57264;47.480;19.354;2023-03-21T13:07:06;10.47;;;2.10;;
44696;SDS011;57264;47.480;19.354;2023-03-21T13:09:35;4.37;;;1.63;;
44696;SDS011;57264;47.480;19.354;2023-03-21T13:18:11;2.37;;;1.97;;
44696;SDS011;57264;47.480;19.354;2023-03-21T13:20:54;3.30;;;2.67;;
44696;SDS011;57264;47.480;19.354;2023-03-21T13:23:37;4.03;;;2.40;;
44696;SDS011;57264;47.480;19.354;2023-03-21T13:26:16;4.17;;;2.40;;
44696;SDS011;57264;47.480;19.354;2023-03-21T13:28:42;16.03;;;2.63;;
44696;SDS011;57264;47.480;19.354;2023-03-21T13:31:15;8.07;;;2.60;;
44696;SDS011;57264;47.480;19.354;2023-03-21T13:33:42;3.57;;;1.97;;
44696;SDS011;57264;47.480;19.354;2023-03-21T13:36:11;2.53;;;2.10;;
44696;SDS011;57264;47.480;19.354;2023-03-21T13:38:39;2.37;;;1.90;;
44696;SDS011;57264;47.480;19.354;2023-03-21T14:02:33;2.92;;;1.70;;
44696;SDS011;57264;47.480;19.354;2023-03-21T14:04:36;4.23;;;2.03;;
44696;SDS011;57264;47.480;19.354;2023-03-21T14:09:51;2.10;;;1.90;;
44696;SDS011;57264;47.480;19.354;2023-03-21T14:12:24;2.27;;;1.90;;
44696;SDS011;57264;47.480;19.354;2023-03-21T14:15:03;5.60;;;1.90;;
44696;SDS011;57264;47.480;19.354;2023-03-21T14:17:33;2.83;;;2.10;;
44696;SDS011;57264;47.480;19.354;2023-03-21T14:20:18;5.67;;;2.20;;
44696;SDS011;57264;47.480;19.354;2023-03-21T14:22:51;2.67;;;2.00;;
44696;SDS011;57264;47.480;19.354;2023-03-21T14:25:21;2.43;;;1.67;;
44696;SDS011;57264;47.480;19.354;2023-03-21T14:27:53;3.63;;;1.77;;
44696;SDS011;57264;47.480;19.354;2023-03-21T14:30:23;1.70;;;1.60;;
44696;SDS011;57264;47.480;19.354;2023-03-21T14:33:24;3.43;;;1.83;;
44696;SDS011;57264;47.480;19.354;2023-03-21T14:35:51;2.53;;;1.33;;
44696;SDS011;57264;47.480;19.354;2023-03-21T14:38:22;4.10;;;1.50;;
44696;SDS011;57264;47.480;19.354;2023-03-21T14:40:51;3.57;;;1.77;;
44696;SDS011;57264;47.480;19.354;2023-03-21T14:43:20;6.97;;;2.40;;
44696;SDS011;57264;47.480;19.354;2023-03-21T14:45:47;11.40;;;1.83;;
44696;SDS011;57264;47.480;19.354;2023-03-21T14:48:17;1.87;;;1.57;;
44696;SDS011;57264;47.480;19.354;2023-03-21T14:50:52;8.27;;;3.00;;
44696;SDS011;57264;47.480;19.354;2023-03-21T14:53:26;3.13;;;1.77;;
44696;SDS011;57264;47.480;19.354;2023-03-21T14:58:24;12.82;;;1.60;;
44696;SDS011;57264;47.480;19.354;2023-03-21T15:00:52;2.57;;;1.50;;
44696;SDS011;57264;47.480;19.354;2023-03-21T15:03:21;1.67;;;1.40;;
44696;SDS011;57264;47.480;19.354;2023-03-21T15:05:50;4.23;;;1.40;;
44696;SDS011;57264;47.480;19.354;2023-03-21T15:08:16;2.80;;;1.40;;
44696;SDS011;57264;47.480;19.354;2023-03-21T15:16:16;4.93;;;1.40;;
44696;SDS011;57264;47.480;19.354;2023-03-21T15:18:43;12.47;;;1.63;;
44696;SDS011;57264;47.480;19.354;2023-03-21T15:21:32;6.17;;;1.53;;
44696;SDS011;57264;47.480;19.354;2023-03-21T15:24:01;14.53;;;2.30;;
44696;SDS011;57264;47.480;19.354;2023-03-21T15:26:37;1.25;;;1.13;;
44696;SDS011;57264;47.480;19.354;2023-03-21T15:29:04;2.73;;;1.40;;
44696;SDS011;57264;47.480;19.354;2023-03-21T15:31:33;1.93;;;1.37;;
44696;SDS011;57264;47.480;19.354;2023-03-21T15:34:00;3.03;;;1.77;;
44696;SDS011;57264;47.480;19.354;2023-03-21T15:36:31;2.27;;;1.70;;
44696;SDS011;57264;47.480;19.354;2023-03-21T15:39:01;2.00;;;1.60;;
44696;SDS011;57264;47.480;19.354;2023-03-21T15:41:30;3.10;;;1.53;;
44696;SDS011;57264;47.480;19.354;2023-03-21T15:44:01;2.40;;;1.73;;
44696;SDS011;57264;47.480;19.354;2023-03-21T15:46:50;2.23;;;1.63;;
44696;SDS011;57264;47.480;19.354;2023-03-21T15:52:14;4.20;;;1.80;;
44696;SDS011;57264;47.480;19.354;2023-03-21T15:54:47;2.80;;;1.40;;
44696;SDS011;57264;47.480;19.354;2023-03-21T15:57:23;5.97;;;1.60;;
44696;SDS011;57264;47.480;19.354;2023-03-21T16:02:50;4.07;;;3.17;;
44696;SDS011;57264;47.480;19.354;2023-03-21T16:07:59;2.17;;;1.43;;
44696;SDS011;57264;47.480;19.354;2023-03-21T16:10:30;4.07;;;1.37;;
44696;SDS011;57264;47.480;19.354;2023-03-21T16:13:01;1.40;;;1.30;;
44696;SDS011;57264;47.480;19.354;2023-03-21T16:15:27;12.37;;;2.00;;
44696;SDS011;57264;47.480;19.354;2023-03-21T16:17:54;3.03;;;1.60;;
44696;SDS011;57264;47.480;19.354;2023-03-21T16:20:23;4.00;;;1.80;;
44696;SDS011;57264;47.480;19.354;2023-03-21T16:22:56;2.57;;;2.20;;
44696;SDS011;57264;47.480;19.354;2023-03-21T16:25:22;10.13;;;2.33;;
44696;SDS011;57264;47.480;19.354;2023-03-21T16:27:48;3.37;;;2.40;;
44696;SDS011;57264;47.480;19.354;2023-03-21T16:30:14;4.57;;;2.17;;
44696;SDS011;57264;47.480;19.354;2023-03-21T16:32:42;6.77;;;2.63;;
44696;SDS011;57264;47.480;19.354;2023-03-21T16:35:08;7.00;;;2.37;;
44696;SDS011;57264;47.480;19.354;2023-03-21T16:37:35;5.40;;;2.20;;
44696;SDS011;57264;47.480;19.354;2023-03-21T16:40:00;4.97;;;2.30;;
44696;SDS011;57264;47.480;19.354;2023-03-21T16:42:28;7.37;;;2.40;;
44696;SDS011;57264;47.480;19.354;2023-03-21T16:44:54;3.10;;;2.20;;
44696;SDS011;57264;47.480;19.354;2023-03-21T16:47:25;6.23;;;2.57;;
44696;SDS011;57264;47.480;19.354;2023-03-21T16:49:53;5.35;;;2.40;;
44696;SDS011;57264;47.480;19.354;2023-03-21T16:52:19;6.00;;;2.43;;
44696;SDS011;57264;47.480;19.354;2023-03-21T16:54:45;4.63;;;2.73;;
44696;SDS011;57264;47.480;19.354;2023-03-21T16:57:24;5.17;;;3.00;;
44696;SDS011;57264;47.480;19.354;2023-03-21T16:59:54;6.50;;;3.47;;
44696;SDS011;57264;47.480;19.354;2023-03-21T17:02:20;9.70;;;5.07;;
44696;SDS011;57264;47.480;19.354;2023-03-21T17:04:47;8.27;;;4.50;;
44696;SDS011;57264;47.480;19.354;2023-03-21T17:07:13;7.00;;;4.30;;
44696;SDS011;57264;47.480;19.354;2023-03-21T17:09:40;8.20;;;4.57;;
44696;SDS011;57264;47.480;19.354;2023-03-21T17:12:14;7.43;;;3.33;;